createdAt,value
2022-09-13T00:01:22.701Z,23.70
2022-09-13T00:04:10.345Z,23.70
2022-09-13T00:06:58.072Z,23.70
2022-09-13T00:09:45.176Z,23.70
2022-09-13T00:12:32.439Z,23.70
2022-09-13T00:15:19.914Z,23.70
2022-09-13T00:18:08.462Z,23.70
2022-09-13T00:21:07.655Z,23.70
2022-09-13T00:23:56.569Z,23.70
2022-09-13T00:26:44.031Z,23.70
2022-09-13T00:29:31.064Z,23.60
2022-09-13T00:32:18.547Z,23.60
2022-09-13T00:35:09.405Z,23.60
2022-09-13T00:37:56.477Z,23.60
2022-09-13T00:40:43.560Z,23.60
2022-09-13T00:43:46.801Z,23.60
2022-09-13T00:46:39.951Z,23.60
2022-09-13T00:49:35.273Z,23.60
2022-09-13T00:52:26.672Z,23.60
2022-09-13T00:55:19.881Z,23.50
2022-09-13T00:58:12.224Z,23.50
2022-09-13T01:01:01.129Z,23.50
2022-09-13T01:03:50.262Z,23.50
2022-09-13T01:06:41.313Z,23.50
2022-09-13T01:09:33.282Z,23.50
2022-09-13T01:12:35.383Z,23.50
2022-09-13T01:15:23.100Z,23.40
2022-09-13T01:18:11.132Z,23.50
2022-09-13T01:21:45.266Z,23.40
2022-09-13T01:25:21.087Z,23.40
2022-09-13T01:28:38.719Z,23.50
2022-09-13T01:31:35.960Z,23.50
2022-09-13T01:34:36.426Z,23.40
2022-09-13T01:37:43.784Z,23.40
2022-09-13T01:40:45.228Z,23.40
2022-09-13T01:43:44.011Z,23.40
2022-09-13T01:46:40.605Z,23.40
2022-09-13T01:49:34.452Z,23.30
2022-09-13T01:52:31.140Z,23.30
2022-09-13T01:55:28.405Z,23.30
2022-09-13T01:58:25.637Z,23.30
2022-09-13T02:01:18.521Z,23.30
2022-09-13T02:04:11.552Z,23.30
2022-09-13T02:07:06.723Z,23.30
2022-09-13T02:10:00.978Z,23.30
2022-09-13T02:12:51.365Z,23.30
2022-09-13T02:15:42.258Z,23.30
2022-09-13T02:18:34.120Z,23.30
2022-09-13T02:21:29.777Z,23.20
2022-09-13T02:24:21.246Z,23.20
2022-09-13T02:27:12.962Z,23.20
2022-09-13T02:30:06.444Z,23.20
2022-09-13T02:33:00.381Z,23.20
2022-09-13T02:35:53.607Z,23.20
2022-09-13T02:38:49.449Z,23.20
2022-09-13T02:41:45.278Z,23.10
2022-09-13T02:44:37.639Z,23.10
2022-09-13T02:47:38.272Z,23.10
2022-09-13T02:50:48.545Z,23.10
2022-09-13T02:53:43.925Z,23.10
2022-09-13T02:56:41.389Z,23.10
2022-09-13T02:59:28.798Z,23.10
2022-09-13T03:02:20.274Z,23.10
2022-09-13T03:05:08.571Z,23.10
2022-09-13T03:07:57.176Z,23.10
2022-09-13T03:11:04.309Z,23.10
2022-09-13T03:14:13.368Z,23.10
2022-09-13T03:17:24.132Z,23.10
2022-09-13T03:20:18.566Z,23.00
2022-09-13T03:23:35.918Z,23.00
2022-09-13T03:26:43.411Z,23.10
2022-09-13T03:29:40.860Z,23.00
2022-09-13T03:32:38.139Z,23.00
2022-09-13T03:35:33.751Z,23.00
2022-09-13T03:38:27.938Z,23.00
2022-09-13T03:41:20.280Z,23.00
2022-09-13T03:44:13.103Z,23.00
2022-09-13T03:47:03.783Z,23.00
2022-09-13T03:49:52.604Z,22.90
2022-09-13T03:52:42.239Z,23.00
2022-09-13T03:55:35.493Z,22.90
2022-09-13T03:58:26.109Z,23.00
2022-09-13T04:01:14.671Z,22.90
2022-09-13T04:04:02.003Z,22.90
2022-09-13T04:06:49.667Z,22.90
2022-09-13T04:09:36.756Z,22.90
2022-09-13T04:12:24.061Z,23.00
2022-09-13T04:15:11.415Z,22.90
2022-09-13T04:18:01.132Z,22.90
2022-09-13T04:20:56.232Z,22.90
2022-09-13T04:23:43.726Z,22.90
2022-09-13T04:26:30.995Z,22.90
2022-09-13T04:29:18.256Z,22.90
2022-09-13T04:32:05.761Z,22.90
2022-09-13T04:34:54.530Z,22.90
2022-09-13T04:37:42.708Z,22.90
2022-09-13T04:40:29.869Z,22.90
2022-09-13T04:43:17.313Z,22.90
2022-09-13T04:46:04.473Z,22.90
2022-09-13T04:48:52.989Z,22.90
2022-09-13T04:51:41.606Z,23.00
2022-09-13T04:54:28.731Z,22.90
2022-09-13T04:57:16.630Z,22.90
2022-09-13T05:00:04.961Z,22.90
2022-09-13T05:02:57.233Z,22.90
2022-09-13T05:05:44.558Z,23.00
2022-09-13T05:08:33.595Z,22.90
2022-09-13T05:11:20.714Z,22.90
2022-09-13T05:14:07.743Z,23.00
2022-09-13T05:16:55.065Z,23.00
2022-09-13T05:19:42.193Z,23.00
2022-09-13T05:22:29.224Z,23.00
2022-09-13T05:25:17.883Z,23.00
2022-09-13T05:28:05.626Z,23.00
2022-09-13T05:30:58.203Z,23.00
2022-09-13T05:33:47.317Z,23.00
2022-09-13T05:36:35.450Z,23.00
2022-09-13T05:40:00.229Z,23.00
2022-09-13T05:42:31.534Z,23.00
2022-09-13T05:45:18.812Z,23.00
2022-09-13T05:48:05.957Z,23.00
2022-09-13T05:51:00.313Z,22.90
2022-09-13T05:53:49.328Z,23.00
2022-09-13T05:56:36.671Z,22.90
2022-09-13T05:59:25.132Z,23.00
2022-09-13T06:02:12.456Z,23.00
2022-09-13T06:04:59.805Z,23.00
2022-09-13T06:07:46.841Z,23.00
2022-09-13T06:10:33.997Z,23.00
2022-09-13T06:13:21.207Z,23.00
2022-09-13T06:16:13.106Z,23.00
2022-09-13T06:19:00.714Z,23.00
2022-09-13T06:21:47.695Z,23.00
2022-09-13T06:24:34.776Z,23.00
2022-09-13T06:27:22.319Z,23.00
2022-09-13T06:30:13.082Z,23.00
2022-09-13T06:33:01.861Z,23.00
2022-09-13T06:35:49.244Z,23.00
2022-09-13T06:38:36.372Z,23.00
2022-09-13T06:41:26.352Z,23.00
2022-09-13T06:44:13.587Z,23.00
2022-09-13T06:47:00.719Z,23.00
2022-09-13T06:49:49.438Z,23.10
2022-09-13T06:52:37.546Z,23.00
2022-09-13T06:55:25.079Z,23.10
2022-09-13T06:58:12.259Z,23.10
2022-09-13T07:01:11.621Z,23.10
2022-09-13T07:04:01.923Z,23.10
2022-09-13T07:06:51.516Z,23.10
2022-09-13T07:09:38.918Z,23.10
2022-09-13T07:12:26.108Z,23.20
2022-09-13T07:15:13.381Z,23.20
2022-09-13T07:18:00.785Z,23.20
2022-09-13T07:20:47.730Z,23.20
2022-09-13T07:23:39.263Z,23.20
2022-09-13T07:26:28.076Z,23.20
2022-09-13T07:29:19.155Z,23.20
2022-09-13T07:32:06.487Z,23.20
2022-09-13T07:34:53.614Z,23.20
2022-09-13T07:37:42.371Z,23.20
2022-09-13T07:40:30.854Z,23.20
2022-09-13T07:43:18.000Z,23.30
2022-09-13T07:46:07.277Z,23.30
2022-09-13T07:48:56.635Z,23.30
2022-09-13T07:51:45.458Z,23.30
2022-09-13T07:54:32.665Z,23.30
2022-09-13T07:57:21.336Z,23.30
2022-09-13T08:00:11.490Z,23.30
2022-09-13T08:02:58.972Z,23.40
2022-09-13T08:05:46.487Z,23.40
2022-09-13T08:08:35.112Z,23.40
2022-09-13T08:11:24.430Z,23.40
2022-09-13T08:14:16.083Z,23.40
2022-09-13T08:17:03.468Z,23.40
2022-09-13T08:19:50.409Z,23.40
2022-09-13T08:22:37.386Z,23.50
2022-09-13T08:25:24.496Z,23.50
2022-09-13T08:28:16.684Z,23.50
2022-09-13T08:31:11.029Z,23.50
2022-09-13T08:33:58.828Z,23.50
2022-09-13T08:36:46.225Z,23.50
2022-09-13T08:39:33.562Z,23.50
2022-09-13T08:42:33.162Z,23.60
2022-09-13T08:45:22.661Z,23.60
2022-09-13T08:48:18.764Z,23.60
2022-09-13T08:51:09.157Z,23.60
2022-09-13T08:53:58.695Z,23.60
2022-09-13T08:56:53.510Z,23.60
2022-09-13T08:59:56.098Z,23.60
2022-09-13T09:02:59.790Z,23.70
2022-09-13T09:05:51.382Z,23.70
2022-09-13T09:08:46.809Z,23.70
2022-09-13T09:11:43.432Z,23.70
2022-09-13T09:14:34.364Z,23.80
2022-09-13T09:17:27.773Z,23.80
2022-09-13T09:20:25.924Z,23.80
2022-09-13T09:23:21.661Z,23.90
2022-09-13T09:26:18.989Z,23.90
2022-09-13T09:29:18.891Z,23.90
2022-09-13T09:32:24.961Z,23.90
2022-09-13T09:35:22.210Z,24.00
2022-09-13T09:38:33.780Z,24.00
2022-09-13T09:41:29.412Z,24.00
2022-09-13T09:44:21.677Z,24.00
2022-09-13T09:47:17.297Z,24.10
2022-09-13T09:50:13.112Z,24.10
2022-09-13T09:53:05.062Z,24.10
2022-09-13T09:56:00.423Z,24.10
2022-09-13T09:58:48.776Z,24.10
2022-09-13T10:01:40.088Z,24.10
2022-09-13T10:04:27.596Z,24.20
2022-09-13T10:07:29.099Z,24.20
2022-09-13T10:10:25.707Z,24.20
2022-09-13T10:13:21.262Z,24.20
2022-09-13T10:16:26.090Z,24.30
2022-09-13T10:19:26.440Z,24.30
2022-09-13T10:22:14.619Z,24.30
2022-09-13T10:25:17.526Z,24.30
2022-09-13T10:28:11.634Z,24.30
2022-09-13T10:31:05.287Z,24.40
2022-09-13T10:34:02.334Z,24.40
2022-09-13T10:36:57.214Z,24.40
2022-09-13T10:39:58.303Z,24.50
2022-09-13T10:42:54.539Z,24.50
2022-09-13T10:45:43.636Z,24.50
2022-09-13T10:48:45.971Z,24.60
2022-09-13T10:51:38.934Z,24.60
2022-09-13T10:54:26.015Z,24.60
2022-09-13T10:57:36.131Z,24.60
2022-09-13T11:00:31.162Z,24.60
2022-09-13T11:03:45.666Z,24.70
2022-09-13T11:06:42.413Z,24.70
2022-09-13T11:09:37.127Z,24.70
2022-09-13T11:12:32.906Z,24.70
2022-09-13T11:15:37.124Z,24.70
2022-09-13T11:18:55.197Z,24.70
2022-09-13T11:21:57.832Z,24.70
2022-09-13T11:25:02.536Z,24.80
2022-09-13T11:28:02.090Z,24.80
2022-09-13T11:31:10.072Z,24.80
2022-09-13T11:34:18.023Z,24.80
2022-09-13T11:37:20.832Z,24.80
2022-09-13T11:40:30.154Z,24.80
2022-09-13T11:43:36.133Z,24.80
2022-09-13T11:46:31.557Z,24.80
2022-09-13T11:50:01.840Z,24.80
2022-09-13T11:53:06.444Z,24.80
2022-09-13T11:55:57.509Z,24.80
2022-09-13T11:58:50.455Z,24.80
2022-09-13T12:01:44.683Z,24.80
2022-09-13T12:04:40.124Z,24.80
2022-09-13T12:07:36.028Z,24.80
2022-09-13T12:10:27.948Z,24.80
2022-09-13T12:13:21.935Z,24.80
2022-09-13T12:16:14.484Z,24.80
2022-09-13T12:19:04.468Z,24.80
2022-09-13T12:21:55.935Z,24.80
2022-09-13T12:24:48.367Z,24.80
2022-09-13T12:27:42.945Z,24.80
2022-09-13T12:30:42.667Z,24.80
2022-09-13T12:33:30.014Z,24.80
2022-09-13T12:36:48.942Z,24.80
2022-09-13T12:40:15.626Z,24.80
2022-09-13T12:43:44.049Z,24.80
2022-09-13T12:47:13.217Z,24.80
2022-09-13T12:50:43.351Z,24.80
2022-09-13T12:54:09.681Z,24.80
2022-09-13T12:57:20.898Z,24.80
2022-09-13T13:00:31.209Z,24.80
2022-09-13T13:03:21.070Z,24.80
2022-09-13T13:06:12.374Z,24.80
2022-09-13T13:09:03.642Z,24.80
2022-09-13T13:11:54.538Z,24.80
2022-09-13T13:14:53.691Z,24.80
2022-09-13T13:17:48.255Z,24.90
2022-09-13T13:21:09.234Z,24.90
2022-09-13T13:24:41.192Z,24.90
2022-09-13T13:27:48.436Z,24.90
2022-09-13T13:30:56.458Z,24.90
2022-09-13T13:33:58.482Z,24.90
2022-09-13T13:36:49.068Z,24.90
2022-09-13T13:39:40.358Z,24.90
2022-09-13T13:42:29.530Z,24.90
2022-09-13T13:45:25.239Z,24.90
2022-09-13T13:48:16.606Z,24.90
2022-09-13T13:51:25.243Z,24.90
2022-09-13T13:54:34.241Z,25.00
2022-09-13T13:57:28.272Z,25.00
2022-09-13T14:00:20.974Z,25.00
2022-09-13T14:03:26.105Z,25.00
2022-09-13T14:06:22.330Z,25.10
2022-09-13T14:09:30.425Z,25.10
2022-09-13T14:12:34.525Z,25.10
2022-09-13T14:15:40.931Z,25.10
2022-09-13T14:18:53.719Z,25.10
2022-09-13T14:21:41.152Z,25.10
2022-09-13T14:24:28.452Z,25.10
2022-09-13T14:27:19.595Z,25.10
2022-09-13T14:30:20.988Z,25.10
2022-09-13T14:33:08.758Z,25.10
2022-09-13T14:36:05.511Z,25.10
2022-09-13T14:38:58.053Z,25.10
2022-09-13T14:41:45.041Z,25.10
2022-09-13T14:44:32.253Z,25.20
2022-09-13T14:47:27.494Z,25.10
2022-09-13T14:50:18.216Z,25.10
2022-09-13T14:53:12.494Z,25.20
2022-09-13T14:56:07.194Z,25.20
2022-09-13T14:58:57.993Z,25.20
2022-09-13T15:01:45.478Z,25.20
2022-09-13T15:04:33.179Z,25.20
2022-09-13T15:07:30.977Z,25.20
2022-09-13T15:10:26.707Z,25.20
2022-09-13T15:13:16.734Z,25.20
2022-09-13T15:16:04.144Z,25.20
2022-09-13T15:19:17.899Z,25.20
2022-09-13T15:22:20.284Z,25.10
2022-09-13T15:25:08.102Z,25.20
2022-09-13T15:27:58.280Z,25.20
2022-09-13T15:30:46.093Z,25.20
2022-09-13T15:33:36.487Z,25.20
2022-09-13T15:36:30.692Z,25.20
2022-09-13T15:39:20.381Z,25.20
2022-09-13T15:42:08.715Z,25.20
2022-09-13T15:44:57.435Z,25.20
2022-09-13T15:47:48.127Z,25.20
2022-09-13T15:50:37.017Z,25.20
2022-09-13T15:53:24.008Z,25.20
2022-09-13T15:56:17.492Z,25.20
2022-09-13T15:59:04.883Z,25.20
2022-09-13T16:01:55.812Z,25.20
2022-09-13T16:04:43.657Z,25.20
2022-09-13T16:07:30.719Z,25.20
2022-09-13T16:10:21.332Z,25.20
2022-09-13T16:13:08.892Z,25.20
2022-09-13T16:15:58.050Z,25.20
2022-09-13T16:18:47.326Z,25.20
2022-09-13T16:21:35.122Z,25.20
2022-09-13T16:24:22.169Z,25.20
2022-09-13T16:27:10.858Z,25.20
2022-09-13T16:29:58.224Z,25.20
2022-09-13T16:32:46.225Z,25.20
2022-09-13T16:35:34.675Z,25.20
2022-09-13T16:38:22.248Z,25.20
2022-09-13T16:41:09.975Z,25.20
2022-09-13T16:43:57.868Z,25.20
2022-09-13T16:46:45.252Z,25.20
2022-09-13T16:49:32.300Z,25.20
2022-09-13T16:52:20.918Z,25.20
2022-09-13T16:55:09.350Z,25.20
2022-09-13T16:57:56.958Z,25.20
2022-09-13T17:00:45.428Z,25.20
2022-09-13T17:03:32.644Z,25.20
2022-09-13T17:06:21.200Z,25.20
2022-09-13T17:09:10.436Z,25.20
2022-09-13T17:11:57.884Z,25.20
2022-09-13T17:14:47.568Z,25.20
2022-09-13T17:17:36.356Z,25.20
2022-09-13T17:20:23.761Z,25.20
2022-09-13T17:23:11.002Z,25.20
2022-09-13T17:25:59.575Z,25.20
2022-09-13T17:28:47.393Z,25.20
2022-09-13T17:31:35.712Z,25.20
2022-09-13T17:34:23.387Z,25.20
2022-09-13T17:37:11.253Z,25.20
2022-09-13T17:39:58.389Z,25.20
2022-09-13T17:42:48.365Z,25.20
2022-09-13T17:45:35.532Z,25.20
2022-09-13T17:48:22.884Z,25.20
2022-09-13T17:51:13.747Z,25.20
2022-09-13T17:54:02.375Z,25.20
2022-09-13T17:56:52.031Z,25.20
2022-09-13T17:59:40.464Z,25.20
2022-09-13T18:02:28.053Z,25.20
2022-09-13T18:05:15.561Z,25.20
2022-09-13T18:08:03.292Z,25.20
2022-09-13T18:11:10.605Z,25.20
2022-09-13T18:13:58.174Z,25.20
2022-09-13T18:16:49.346Z,25.20
2022-09-13T18:19:45.936Z,25.10
2022-09-13T18:22:33.536Z,25.10
2022-09-13T18:25:23.510Z,25.10
2022-09-13T18:28:10.918Z,25.10
2022-09-13T18:31:00.340Z,25.10
2022-09-13T18:33:49.039Z,25.10
2022-09-13T18:36:37.706Z,25.10
2022-09-13T18:39:25.123Z,25.10
2022-09-13T18:42:12.582Z,25.00
2022-09-13T18:44:59.596Z,25.00
2022-09-13T18:47:46.655Z,25.00
2022-09-13T18:50:35.088Z,25.00
2022-09-13T18:53:31.868Z,25.00
2022-09-13T18:56:23.443Z,25.00
2022-09-13T18:59:11.793Z,25.00
2022-09-13T19:01:59.138Z,25.00
2022-09-13T19:04:46.222Z,25.00
2022-09-13T19:07:34.758Z,25.00
2022-09-13T19:10:22.079Z,24.90
2022-09-13T19:13:10.631Z,24.90
2022-09-13T19:16:00.127Z,24.90
2022-09-13T19:18:51.536Z,24.90
2022-09-13T19:21:38.844Z,24.90
2022-09-13T19:24:27.890Z,24.90
2022-09-13T19:27:15.345Z,24.90
2022-09-13T19:30:02.755Z,24.90
2022-09-13T19:32:50.011Z,24.90
2022-09-13T19:35:37.437Z,24.90
2022-09-13T19:38:24.750Z,24.90
2022-09-13T19:41:16.276Z,24.90
2022-09-13T19:44:04.848Z,24.90
2022-09-13T19:47:14.819Z,24.90
2022-09-13T19:49:59.860Z,24.90
2022-09-13T19:52:49.571Z,24.90
2022-09-13T19:55:36.838Z,24.90
2022-09-13T19:58:25.485Z,24.90
2022-09-13T20:01:15.952Z,24.90
2022-09-13T20:04:05.710Z,24.90
2022-09-13T20:06:53.499Z,24.90
2022-09-13T20:09:42.380Z,24.90
2022-09-13T20:12:29.630Z,24.90
2022-09-13T20:15:18.644Z,24.90
2022-09-13T20:18:13.163Z,24.90
2022-09-13T20:21:05.185Z,24.80
2022-09-13T20:23:57.521Z,24.80
2022-09-13T20:26:44.945Z,24.80
2022-09-13T20:29:32.550Z,24.80
2022-09-13T20:32:21.191Z,24.80
2022-09-13T20:35:10.919Z,24.80
2022-09-13T20:37:58.304Z,24.80
2022-09-13T20:40:45.601Z,24.80
2022-09-13T20:43:33.880Z,24.80
2022-09-13T20:46:23.262Z,24.80
2022-09-13T20:49:11.933Z,24.80
2022-09-13T20:51:59.356Z,24.80
2022-09-13T20:54:46.586Z,24.80
2022-09-13T20:57:33.647Z,24.80
2022-09-13T21:00:20.962Z,24.80
2022-09-13T21:03:08.377Z,24.80
2022-09-13T21:05:56.953Z,24.80
2022-09-13T21:08:43.353Z,24.80
2022-09-13T21:11:38.777Z,24.80
2022-09-13T21:14:26.001Z,24.70
2022-09-13T21:17:13.878Z,24.70
2022-09-13T21:20:01.163Z,24.70
2022-09-13T21:22:49.825Z,24.70
2022-09-13T21:25:37.696Z,24.70
2022-09-13T21:28:24.924Z,24.70
2022-09-13T21:31:18.433Z,24.70
2022-09-13T21:34:14.325Z,24.70
2022-09-13T21:37:01.366Z,24.70
2022-09-13T21:39:49.928Z,24.70
2022-09-13T21:42:41.286Z,24.70
2022-09-13T21:45:28.395Z,24.70
2022-09-13T21:48:15.592Z,24.70
2022-09-13T21:51:05.400Z,24.70
2022-09-13T21:53:58.679Z,24.70
2022-09-13T21:56:54.901Z,24.70
2022-09-13T21:59:42.100Z,24.70
2022-09-13T22:02:29.189Z,24.70
2022-09-13T22:05:16.305Z,24.70
2022-09-13T22:08:03.780Z,24.60
2022-09-13T22:10:52.025Z,24.60
2022-09-13T22:13:45.531Z,24.60
2022-09-13T22:16:34.906Z,24.60
2022-09-13T22:19:25.004Z,24.60
2022-09-13T22:22:11.987Z,24.60
2022-09-13T22:24:58.963Z,24.60
2022-09-13T22:27:46.021Z,24.60
2022-09-13T22:30:36.116Z,24.60
2022-09-13T22:33:23.068Z,24.60
2022-09-13T22:36:12.942Z,24.60
2022-09-13T22:39:00.602Z,24.60
2022-09-13T22:41:47.894Z,24.60
2022-09-13T22:44:35.053Z,24.60
2022-09-13T22:47:23.650Z,24.60
2022-09-13T22:50:11.134Z,24.60
2022-09-13T22:52:58.164Z,24.60
2022-09-13T22:55:45.207Z,24.60
2022-09-13T22:58:33.048Z,24.60
2022-09-13T23:01:21.085Z,24.60
2022-09-13T23:04:09.688Z,24.60
2022-09-13T23:06:56.984Z,24.60
2022-09-13T23:09:44.158Z,24.60
2022-09-13T23:12:31.592Z,24.60
2022-09-13T23:15:19.966Z,24.60
2022-09-13T23:18:07.512Z,24.60
2022-09-13T23:20:59.628Z,24.60
2022-09-13T23:23:46.951Z,24.60
2022-09-13T23:26:35.293Z,24.60
2022-09-13T23:29:23.243Z,24.60
2022-09-13T23:32:10.504Z,24.60
2022-09-13T23:34:57.627Z,24.60
2022-09-13T23:37:49.218Z,24.60
2022-09-13T23:40:36.827Z,24.60
2022-09-13T23:43:24.746Z,24.60
2022-09-13T23:46:12.539Z,24.60
2022-09-13T23:49:00.095Z,24.60
2022-09-13T23:51:47.579Z,24.60
2022-09-13T23:54:36.223Z,24.60
2022-09-13T23:57:23.704Z,24.60
